Time;durP1;ratioP1;P1;durP2;ratioP2;P2;SDS_P1;SDS_P2;PMS_P1;PMS_P2;Temp;Humidity;BMP_temperature;BMP_pressure;BME280_temperature;BME280_humidity;BME280_pressure;Samples;Min_cycle;Max_cycle;Signal;HPM_P1;HPM_P2
2023/03/12 00:02:08;;;;;;;6.15;4.60;;;;;;;;;;5015844;28;20121;-58
2023/03/12 00:04:34;;;;;;;6.95;5.05;;;;;;;;;;5017523;28;20053;-59
2023/03/12 00:07:00;;;;;;;5.60;4.55;;;;;;;;;;5017216;28;20428;-60
2023/03/12 00:09:26;;;;;;;5.35;3.70;;;;;;;;;;5017527;28;20124;-63
2023/03/12 00:11:51;;;;;;;6.57;4.50;;;;;;;;;;5017123;28;20077;-63
2023/03/12 00:14:16;;;;;;;5.22;4.25;;;;;;;;;;5017079;28;20037;-58
2023/03/12 00:16:42;;;;;;;6.93;4.18;;;;;;;;;;5016763;28;20038;-58
2023/03/12 00:19:09;;;;;;;4.90;3.97;;;;;;;;;;5017089;28;20187;-58
2023/03/12 00:21:35;;;;;;;4.60;3.88;;;;;;;;;;5016822;28;20040;-59
2023/03/12 00:24:00;;;;;;;3.85;3.40;;;;;;;;;;5016973;28;20034;-59
2023/03/12 00:26:25;;;;;;;5.03;3.60;;;;;;;;;;5009135;28;20489;-59
2023/03/12 00:28:51;;;;;;;5.05;3.92;;;;;;;;;;5016899;28;20034;-59
2023/03/12 00:31:16;;;;;;;4.10;3.70;;;;;;;;;;5016523;28;20037;-59
2023/03/12 00:33:42;;;;;;;3.92;3.50;;;;;;;;;;5011215;28;20077;-60
2023/03/12 00:36:07;;;;;;;4.18;3.80;;;;;;;;;;5015506;28;20050;-60
2023/03/12 00:38:32;;;;;;;3.78;3.28;;;;;;;;;;5016810;28;20033;-62
2023/03/12 00:40:58;;;;;;;4.20;3.80;;;;;;;;;;5016974;28;20034;-63
2023/03/12 00:43:23;;;;;;;4.05;3.67;;;;;;;;;;5016656;28;20034;-60
2023/03/12 00:45:48;;;;;;;3.80;3.50;;;;;;;;;;5012076;28;20066;-59
2023/03/12 00:48:14;;;;;;;4.65;3.60;;;;;;;;;;5016323;28;20168;-59
2023/03/12 00:50:39;;;;;;;3.95;3.65;;;;;;;;;;5016790;28;20053;-62
2023/03/12 00:53:05;;;;;;;4.75;3.60;;;;;;;;;;5014447;28;20073;-59
2023/03/12 00:55:30;;;;;;;3.97;3.60;;;;;;;;;;5016235;28;20033;-59
2023/03/12 00:57:55;;;;;;;4.28;3.80;;;;;;;;;;5016384;28;20052;-59
2023/03/12 01:00:20;;;;;;;4.30;3.63;;;;;;;;;;5008056;28;20056;-59
2023/03/12 01:02:46;;;;;;;4.20;3.80;;;;;;;;;;5015408;28;20034;-60
2023/03/12 01:05:12;;;;;;;4.07;3.67;;;;;;;;;;5016486;28;20030;-59
2023/03/12 01:07:38;;;;;;;4.07;3.67;;;;;;;;;;5016355;28;20026;-59
2023/03/12 01:10:03;;;;;;;3.90;3.55;;;;;;;;;;5013695;28;20105;-60
2023/03/12 01:12:29;;;;;;;3.95;3.65;;;;;;;;;;5008112;28;20050;-60
2023/03/12 01:14:54;;;;;;;3.25;2.97;;;;;;;;;;5016099;28;20537;-59
2023/03/12 01:17:19;;;;;;;4.03;3.70;;;;;;;;;;5007945;28;20530;-60
2023/03/12 01:19:45;;;;;;;4.32;3.92;;;;;;;;;;5014952;28;20037;-59
2023/03/12 01:22:10;;;;;;;5.68;3.80;;;;;;;;;;5014986;28;20053;-60
2023/03/12 01:24:36;;;;;;;4.22;3.75;;;;;;;;;;5015915;28;20088;-60
2023/03/12 01:27:01;;;;;;;3.05;2.83;;;;;;;;;;5013406;28;20180;-59
2023/03/12 01:29:27;;;;;;;3.00;2.75;;;;;;;;;;5008834;28;20037;-59
2023/03/12 01:31:52;;;;;;;3.90;3.20;;;;;;;;;;5015695;28;20033;-59
2023/03/12 01:34:18;;;;;;;3.30;3.08;;;;;;;;;;5015672;28;20113;-59
2023/03/12 01:36:45;;;;;;;3.53;3.03;;;;;;;;;;5015529;28;20109;-59
2023/03/12 01:39:10;;;;;;;3.45;3.22;;;;;;;;;;5015838;28;20049;-58
2023/03/12 01:41:36;;;;;;;3.65;3.35;;;;;;;;;;5009335;28;20030;-59
2023/03/12 01:44:02;;;;;;;3.92;3.08;;;;;;;;;;5015420;28;20501;-59
2023/03/12 01:46:31;;;;;;;3.78;3.47;;;;;;;;;;5008136;28;20034;-59
2023/03/12 01:48:59;;;;;;;4.25;3.95;;;;;;;;;;5014069;28;20440;-60
2023/03/12 01:51:27;;;;;;;3.80;3.50;;;;;;;;;;5008242;28;20436;-62
2023/03/12 01:53:54;;;;;;;4.35;3.97;;;;;;;;;;5014356;28;20042;-62
2023/03/12 01:56:20;;;;;;;4.55;4.15;;;;;;;;;;5006789;28;20042;-59
2023/03/12 01:58:48;;;;;;;4.72;4.32;;;;;;;;;;5026484;23;20505;-62
2023/03/12 02:01:16;;;;;;;4.50;4.15;;;;;;;;;;5038958;23;20054;-59
2023/03/12 02:03:43;;;;;;;4.07;3.78;;;;;;;;;;4995008;28;20104;-62
2023/03/12 02:06:11;;;;;;;4.25;3.85;;;;;;;;;;5013356;28;20053;-62
2023/03/12 02:08:40;;;;;;;4.40;4.00;;;;;;;;;;5014725;28;20474;-62
2023/03/12 02:11:05;;;;;;;4.07;3.67;;;;;;;;;;5015002;28;20116;-62
2023/03/12 02:13:30;;;;;;;4.05;3.70;;;;;;;;;;4997088;28;20441;-63
2023/03/12 02:15:56;;;;;;;4.05;3.75;;;;;;;;;;4997450;28;20049;-63
2023/03/12 02:18:21;;;;;;;3.67;3.40;;;;;;;;;;5015199;28;20033;-63
2023/03/12 02:20:47;;;;;;;4.25;3.92;;;;;;;;;;5013751;28;20034;-63
2023/03/12 02:23:20;;;;;;;5.07;3.70;;;;;;;;;;5014838;28;20093;-63
2023/03/12 02:25:48;;;;;;;4.25;3.95;;;;;;;;;;4997034;28;20386;-63
2023/03/12 02:28:15;;;;;;;3.78;3.47;;;;;;;;;;5013869;28;20129;-63
2023/03/12 02:30:43;;;;;;;4.95;3.78;;;;;;;;;;4997770;28;20038;-63
2023/03/12 02:33:09;;;;;;;4.10;3.70;;;;;;;;;;4996773;28;20053;-63
2023/03/12 02:35:35;;;;;;;4.57;4.18;;;;;;;;;;5014630;28;20038;-63
2023/03/12 02:38:01;;;;;;;4.70;4.28;;;;;;;;;;4996653;28;20041;-63
2023/03/12 02:40:30;;;;;;;4.13;3.83;;;;;;;;;;4997394;28;20034;-63
2023/03/12 02:42:56;;;;;;;5.82;5.22;;;;;;;;;;4997127;28;20029;-63
2023/03/12 02:45:21;;;;;;;4.85;4.38;;;;;;;;;;5014337;28;20351;-63
2023/03/12 02:47:47;;;;;;;6.15;4.95;;;;;;;;;;5014441;28;20037;-63
2023/03/12 02:50:12;;;;;;;6.90;5.35;;;;;;;;;;4997130;28;20513;-63
2023/03/12 02:52:38;;;;;;;6.43;5.68;;;;;;;;;;4996769;28;20062;-63
2023/03/12 02:55:04;;;;;;;8.27;5.78;;;;;;;;;;5014639;28;20034;-63
2023/03/12 02:57:30;;;;;;;5.78;5.20;;;;;;;;;;4996607;28;20030;-63
2023/03/12 02:59:55;;;;;;;6.15;5.55;;;;;;;;;;5014655;28;20034;-63
2023/03/12 03:02:21;;;;;;;4.93;4.43;;;;;;;;;;4980203;28;20516;-63
2023/03/12 03:04:46;;;;;;;5.90;4.63;;;;;;;;;;5013359;28;20463;-62
2023/03/12 03:07:13;;;;;;;6.78;4.70;;;;;;;;;;5014140;28;20046;-62
2023/03/12 03:09:39;;;;;;;5.95;5.35;;;;;;;;;;4996477;28;20081;-62
2023/03/12 03:12:05;;;;;;;4.30;4.00;;;;;;;;;;4996490;28;20026;-62
2023/03/12 03:14:32;;;;;;;4.72;3.97;;;;;;;;;;4996584;28;20067;-62
2023/03/12 03:16:57;;;;;;;5.28;3.78;;;;;;;;;;5014456;28;20409;-62
2023/03/12 03:19:23;;;;;;;4.32;3.92;;;;;;;;;;5014063;28;20030;-62
2023/03/12 03:21:48;;;;;;;7.30;5.07;;;;;;;;;;5022871;23;20117;-62
2023/03/12 03:24:14;;;;;;;8.18;5.32;;;;;;;;;;5013442;28;20105;-62
2023/03/12 03:26:39;;;;;;;5.25;4.35;;;;;;;;;;4996120;28;20045;-62
2023/03/12 03:29:04;;;;;;;6.05;4.72;;;;;;;;;;5013473;28;20117;-62
2023/03/12 03:31:30;;;;;;;7.93;5.78;;;;;;;;;;5012432;28;20429;-62
2023/03/12 03:33:56;;;;;;;7.55;5.55;;;;;;;;;;4996407;28;20037;-62
2023/03/12 03:36:22;;;;;;;6.07;4.72;;;;;;;;;;4997463;28;20390;-62
2023/03/12 03:39:04;;;;;;;7.38;4.88;;;;;;;;;;5000334;28;20041;-62
2023/03/12 03:41:31;;;;;;;8.55;5.50;;;;;;;;;;5000000;28;20029;-62
2023/03/12 03:43:57;;;;;;;9.80;5.85;;;;;;;;;;5000008;28;20466;-62
2023/03/12 03:46:23;;;;;;;9.70;6.25;;;;;;;;;;5000307;28;20056;-62
2023/03/12 03:48:54;;;;;;;10.98;7.13;;;;;;;;;;5017778;28;20120;-62
2023/03/12 03:51:21;;;;;;;11.15;6.80;;;;;;;;;;5000408;28;20506;-62
2023/03/12 03:53:49;;;;;;;10.07;7.38;;;;;;;;;;5016228;28;20049;-62
2023/03/12 03:56:15;;;;;;;8.52;6.80;;;;;;;;;;5000132;28;20038;-62
2023/03/12 03:58:44;;;;;;;8.52;6.15;;;;;;;;;;4999861;28;20045;-62
2023/03/12 04:01:14;;;;;;;7.15;5.85;;;;;;;;;;5000340;28;20026;-62
2023/03/12 04:03:40;;;;;;;7.15;6.10;;;;;;;;;;5000276;28;20014;-62
2023/03/12 04:06:06;;;;;;;9.38;6.70;;;;;;;;;;5016254;28;20124;-63
2023/03/12 04:08:34;;;;;;;9.50;7.38;;;;;;;;;;4999780;28;20041;-63
2023/03/12 04:11:11;;;;;;;8.35;5.70;;;;;;;;;;4999400;28;20038;-62
2023/03/12 04:13:37;;;;;;;7.25;6.50;;;;;;;;;;5000108;28;20069;-62
2023/03/12 04:16:02;;;;;;;7.88;6.75;;;;;;;;;;5016233;28;20057;-62
2023/03/12 04:18:28;;;;;;;11.07;8.88;;;;;;;;;;4999681;28;20073;-63
2023/03/12 04:20:55;;;;;;;8.25;7.40;;;;;;;;;;4999846;28;20351;-63
2023/03/12 04:23:20;;;;;;;10.68;7.78;;;;;;;;;;5016790;28;20073;-63
2023/03/12 04:25:45;;;;;;;9.40;8.35;;;;;;;;;;4999745;28;20068;-62
2023/03/12 04:28:11;;;;;;;8.00;6.28;;;;;;;;;;5017002;28;20077;-62
2023/03/12 04:30:37;;;;;;;9.18;7.85;;;;;;;;;;4999438;28;20044;-62
2023/03/12 04:33:04;;;;;;;8.38;6.60;;;;;;;;;;4999851;28;20053;-62
2023/03/12 04:35:30;;;;;;;8.30;7.45;;;;;;;;;;4999082;28;20040;-62
2023/03/12 04:37:56;;;;;;;9.88;7.45;;;;;;;;;;4999340;28;20088;-62
2023/03/12 04:40:22;;;;;;;10.43;8.73;;;;;;;;;;4999248;28;20375;-62
2023/03/12 04:42:47;;;;;;;12.68;9.18;;;;;;;;;;5015188;28;20041;-62
2023/03/12 04:45:13;;;;;;;10.80;8.90;;;;;;;;;;4999185;28;20114;-63
2023/03/12 04:47:43;;;;;;;9.50;8.10;;;;;;;;;;5016566;28;20042;-63
2023/03/12 04:50:10;;;;;;;11.70;9.00;;;;;;;;;;5014963;28;20057;-62
2023/03/12 04:52:35;;;;;;;7.50;6.55;;;;;;;;;;5014941;28;20030;-63
2023/03/12 04:55:02;;;;;;;8.30;6.72;;;;;;;;;;4998897;28;20034;-62
2023/03/12 04:57:28;;;;;;;7.55;5.78;;;;;;;;;;4998472;28;20552;-61
2023/03/12 04:59:53;;;;;;;8.20;6.85;;;;;;;;;;5016106;28;20026;-62
2023/03/12 05:02:19;;;;;;;11.40;7.85;;;;;;;;;;5002295;28;20088;-63
2023/03/12 05:04:45;;;;;;;9.00;7.53;;;;;;;;;;4998894;28;20053;-62
2023/03/12 05:07:11;;;;;;;8.52;6.78;;;;;;;;;;4998544;28;20101;-63
2023/03/12 05:09:40;;;;;;;7.55;6.63;;;;;;;;;;4998399;28;20433;-63
2023/03/12 05:12:06;;;;;;;7.03;5.75;;;;;;;;;;4982104;28;20037;-63
2023/03/12 05:14:32;;;;;;;7.00;6.20;;;;;;;;;;4998602;28;20037;-62
2023/03/12 05:16:57;;;;;;;7.70;6.05;;;;;;;;;;4998113;28;20045;-63
2023/03/12 05:19:23;;;;;;;6.78;5.95;;;;;;;;;;5016277;28;20157;-62
2023/03/12 05:21:48;;;;;;;7.20;6.00;;;;;;;;;;4998405;28;20034;-62
2023/03/12 05:24:14;;;;;;;7.53;5.90;;;;;;;;;;4997998;28;20129;-62
2023/03/12 05:26:39;;;;;;;6.25;5.57;;;;;;;;;;5031283;28;20046;-62
2023/03/12 05:29:14;;;;;;;6.15;5.55;;;;;;;;;;4998509;28;20038;-63
2023/03/12 05:31:42;;;;;;;6.68;5.25;;;;;;;;;;4997942;28;20037;-63
2023/03/12 05:34:10;;;;;;;6.32;5.68;;;;;;;;;;5030955;28;20382;-63
2023/03/12 05:36:37;;;;;;;5.97;5.32;;;;;;;;;;4997758;28;20486;-63
2023/03/12 05:39:04;;;;;;;5.88;5.18;;;;;;;;;;4998204;28;20124;-62
2023/03/12 05:41:31;;;;;;;5.80;4.90;;;;;;;;;;4997555;28;20057;-63
2023/03/12 05:44:04;;;;;;;7.88;5.45;;;;;;;;;;4997543;28;20084;-63
2023/03/12 05:46:30;;;;;;;7.07;4.88;;;;;;;;;;4997905;28;20125;-63
2023/03/12 05:48:57;;;;;;;7.63;5.32;;;;;;;;;;4997349;28;20034;-64
2023/03/12 05:51:22;;;;;;;6.40;5.32;;;;;;;;;;5013337;28;20058;-64
2023/03/12 05:53:48;;;;;;;7.05;5.50;;;;;;;;;;4980477;28;20037;-63
2023/03/12 05:56:14;;;;;;;7.38;5.30;;;;;;;;;;4997008;28;20022;-63
2023/03/12 05:58:40;;;;;;;6.03;4.72;;;;;;;;;;4996606;28;20034;-63
2023/03/12 06:01:13;;;;;;;7.05;5.53;;;;;;;;;;4979539;28;20033;-62
2023/03/12 06:03:38;;;;;;;5.50;4.63;;;;;;;;;;4986133;28;20026;-60
2023/03/12 06:06:03;;;;;;;7.35;5.45;;;;;;;;;;4994815;28;20184;-62
2023/03/12 06:08:29;;;;;;;9.70;6.90;;;;;;;;;;4995858;28;20517;-62
2023/03/12 06:10:54;;;;;;;7.60;6.18;;;;;;;;;;4995814;28;20516;-62
2023/03/12 06:13:21;;;;;;;7.18;5.45;;;;;;;;;;4980587;28;20045;-62
2023/03/12 06:15:47;;;;;;;6.60;5.45;;;;;;;;;;5013823;28;20587;-62
2023/03/12 06:18:14;;;;;;;9.10;6.93;;;;;;;;;;4996446;28;20033;-62
2023/03/12 06:20:40;;;;;;;7.35;5.85;;;;;;;;;;4995892;28;20038;-62
2023/03/12 06:23:06;;;;;;;7.38;5.57;;;;;;;;;;4995665;28;20390;-62
2023/03/12 06:25:31;;;;;;;10.82;8.65;;;;;;;;;;5013669;28;20030;-62
2023/03/12 06:27:57;;;;;;;9.57;6.68;;;;;;;;;;4996431;28;20378;-62
2023/03/12 06:30:22;;;;;;;8.77;6.57;;;;;;;;;;5014106;28;20042;-62
2023/03/12 06:32:47;;;;;;;6.63;5.20;;;;;;;;;;5012931;28;20125;-62
2023/03/12 06:35:13;;;;;;;10.38;6.85;;;;;;;;;;5013490;28;20045;-62
2023/03/12 06:37:38;;;;;;;8.05;5.90;;;;;;;;;;5013653;28;20036;-62
2023/03/12 06:40:06;;;;;;;7.60;5.45;;;;;;;;;;5013789;28;20425;-62
2023/03/12 06:42:31;;;;;;;9.15;5.97;;;;;;;;;;5013867;28;20045;-62
2023/03/12 06:44:56;;;;;;;7.80;5.97;;;;;;;;;;5013594;28;20044;-62
2023/03/12 06:47:22;;;;;;;7.95;6.47;;;;;;;;;;5013651;28;20069;-62
2023/03/12 06:49:47;;;;;;;7.22;5.88;;;;;;;;;;5013334;28;20034;-63
2023/03/12 06:52:13;;;;;;;7.63;4.78;;;;;;;;;;5012992;28;20061;-63
2023/03/12 06:54:38;;;;;;;7.80;5.90;;;;;;;;;;4996095;28;20125;-63
2023/03/12 06:57:03;;;;;;;7.10;4.93;;;;;;;;;;4995898;28;20042;-62
2023/03/12 06:59:29;;;;;;;6.93;5.10;;;;;;;;;;4979665;28;20034;-62
2023/03/12 07:01:54;;;;;;;7.85;5.35;;;;;;;;;;5013654;28;20041;-59
2023/03/12 07:04:19;;;;;;;6.22;4.70;;;;;;;;;;5013609;28;20115;-59
2023/03/12 07:06:49;;;;;;;7.78;5.50;;;;;;;;;;5013615;28;20385;-62
2023/03/12 07:09:20;;;;;;;8.67;5.70;;;;;;;;;;5006294;28;20081;-62
2023/03/12 07:11:46;;;;;;;8.48;5.22;;;;;;;;;;5013573;28;20046;-62
2023/03/12 07:14:11;;;;;;;7.20;4.68;;;;;;;;;;5013749;28;20034;-62
2023/03/12 07:16:37;;;;;;;7.78;5.07;;;;;;;;;;5013315;28;20128;-62
2023/03/12 07:19:02;;;;;;;8.70;5.40;;;;;;;;;;5013587;28;20077;-62
2023/03/12 07:21:28;;;;;;;5.45;4.05;;;;;;;;;;5012569;28;20030;-62
2023/03/12 07:23:53;;;;;;;6.47;4.45;;;;;;;;;;5013027;28;20111;-62
2023/03/12 07:26:19;;;;;;;7.15;4.95;;;;;;;;;;5013030;28;20378;-62
2023/03/12 07:28:44;;;;;;;8.60;4.63;;;;;;;;;;4995672;28;20033;-62
2023/03/12 07:31:09;;;;;;;7.43;4.78;;;;;;;;;;4995872;28;20474;-62
2023/03/12 07:33:35;;;;;;;7.10;4.63;;;;;;;;;;5012492;28;20474;-58
2023/03/12 07:36:00;;;;;;;4.03;3.30;;;;;;;;;;5012922;28;20068;-59
2023/03/12 07:38:26;;;;;;;4.95;3.90;;;;;;;;;;5013012;28;20577;-59
2023/03/12 07:40:52;;;;;;;7.03;3.85;;;;;;;;;;5013030;28;20034;-62
2023/03/12 07:43:18;;;;;;;5.20;3.08;;;;;;;;;;5012774;28;20060;-62
2023/03/12 07:45:44;;;;;;;3.80;2.97;;;;;;;;;;4995575;28;20115;-62
2023/03/12 07:48:09;;;;;;;4.97;3.53;;;;;;;;;;4995562;28;20121;-59
2023/03/12 07:50:35;;;;;;;8.05;4.45;;;;;;;;;;4995674;28;20038;-59
2023/03/12 07:53:01;;;;;;;6.88;3.92;;;;;;;;;;5013119;28;20113;-58
2023/03/12 07:55:26;;;;;;;8.60;4.07;;;;;;;;;;5013198;28;20026;-57
2023/03/12 07:57:52;;;;;;;7.32;3.95;;;;;;;;;;5013184;28;20096;-60
2023/03/12 08:00:17;;;;;;;6.93;4.28;;;;;;;;;;4995456;28;20030;-60
2023/03/12 08:02:44;;;;;;;6.22;3.90;;;;;;;;;;5013210;28;20072;-58
2023/03/12 08:05:10;;;;;;;4.75;3.95;;;;;;;;;;4995065;28;20038;-58
2023/03/12 08:07:35;;;;;;;3.53;3.10;;;;;;;;;;5013046;28;20347;-59
2023/03/12 08:10:01;;;;;;;4.88;3.60;;;;;;;;;;4995340;28;20052;-58
2023/03/12 08:12:28;;;;;;;5.65;3.55;;;;;;;;;;4995692;28;20038;-58
2023/03/12 08:14:53;;;;;;;2.97;2.70;;;;;;;;;;5012924;28;20484;-57
2023/03/12 08:17:19;;;;;;;3.60;2.53;;;;;;;;;;5013025;28;20038;-57
2023/03/12 08:19:44;;;;;;;4.47;2.92;;;;;;;;;;5012874;28;20078;-58
2023/03/12 08:22:10;;;;;;;4.53;3.50;;;;;;;;;;4995311;28;20040;-58
2023/03/12 08:24:35;;;;;;;5.30;3.50;;;;;;;;;;5015050;28;20037;-58
2023/03/12 08:27:00;;;;;;;6.47;3.13;;;;;;;;;;4997455;28;20052;-58
2023/03/12 08:29:26;;;;;;;4.93;2.88;;;;;;;;;;5015074;28;20121;-58
2023/03/12 08:31:51;;;;;;;3.65;2.40;;;;;;;;;;5015180;28;20185;-58
2023/03/12 08:34:17;;;;;;;3.72;2.78;;;;;;;;;;5015039;28;20037;-57
2023/03/12 08:36:42;;;;;;;4.25;2.58;;;;;;;;;;4997050;28;20584;-57
2023/03/12 08:39:08;;;;;;;4.38;2.72;;;;;;;;;;5014689;28;20040;-58
2023/03/12 08:41:33;;;;;;;5.00;3.17;;;;;;;;;;5014527;28;20448;-57
2023/03/12 08:43:58;;;;;;;4.15;3.25;;;;;;;;;;5015079;28;20034;-57
2023/03/12 08:46:24;;;;;;;2.67;2.47;;;;;;;;;;5014831;28;20501;-57
2023/03/12 08:48:49;;;;;;;5.28;3.20;;;;;;;;;;5015164;28;20456;-57
2023/03/12 08:51:15;;;;;;;3.22;2.90;;;;;;;;;;4997387;28;20081;-57
2023/03/12 08:53:41;;;;;;;3.42;2.72;;;;;;;;;;5014936;28;20049;-57
2023/03/12 08:56:06;;;;;;;2.63;2.42;;;;;;;;;;5014763;28;20034;-57
2023/03/12 08:58:32;;;;;;;6.20;2.85;;;;;;;;;;5014791;28;20049;-57
2023/03/12 09:00:57;;;;;;;2.63;2.25;;;;;;;;;;4980605;28;20034;-57
2023/03/12 09:03:23;;;;;;;3.13;2.20;;;;;;;;;;5014455;28;20034;-57
2023/03/12 09:05:48;;;;;;;5.45;2.38;;;;;;;;;;5014382;28;20109;-57
2023/03/12 09:08:14;;;;;;;4.65;2.83;;;;;;;;;;5014563;28;20041;-57
2023/03/12 09:10:40;;;;;;;3.40;2.75;;;;;;;;;;4996619;28;20116;-57
2023/03/12 09:13:06;;;;;;;4.13;2.25;;;;;;;;;;5014286;28;20478;-57
2023/03/12 09:15:32;;;;;;;3.55;3.15;;;;;;;;;;5013549;28;20043;-57
2023/03/12 09:17:57;;;;;;;4.15;3.17;;;;;;;;;;5013830;28;20040;-56
2023/03/12 09:20:23;;;;;;;3.55;2.88;;;;;;;;;;5014593;28;20062;-59
2023/03/12 09:22:48;;;;;;;4.10;3.33;;;;;;;;;;4975460;28;1137286;-59
2023/03/12 09:25:14;;;;;;;4.75;2.63;;;;;;;;;;5015571;28;20033;-59
2023/03/12 09:27:41;;;;;;;3.97;2.88;;;;;;;;;;4997849;28;20034;-57
2023/03/12 09:30:08;;;;;;;3.60;2.58;;;;;;;;;;4997754;28;20077;-57
2023/03/12 09:32:34;;;;;;;5.93;3.35;;;;;;;;;;4997570;28;20045;-59
2023/03/12 09:34:59;;;;;;;5.05;3.08;;;;;;;;;;5014148;28;20029;-59
2023/03/12 09:37:25;;;;;;;3.17;2.47;;;;;;;;;;5015020;28;20436;-57
2023/03/12 09:39:50;;;;;;;4.38;2.05;;;;;;;;;;5015292;28;20034;-59
2023/03/12 09:42:21;;;;;;;4.68;2.28;;;;;;;;;;5015679;28;20425;-62
2023/03/12 09:44:47;;;;;;;4.85;2.78;;;;;;;;;;4997571;28;20033;-64
2023/03/12 09:47:33;;;;;;;2.90;2.50;;;;;;;;;;5015143;28;20490;-62
2023/03/12 09:50:00;;;;;;;3.42;2.40;;;;;;;;;;5014793;28;20121;-62
2023/03/12 09:52:25;;;;;;;2.85;2.22;;;;;;;;;;4997735;28;20069;-62
2023/03/12 09:54:55;;;;;;;2.03;1.92;;;;;;;;;;5015236;28;20168;-62
2023/03/12 09:57:22;;;;;;;3.60;2.13;;;;;;;;;;4997581;28;20033;-65
2023/03/12 09:59:48;;;;;;;3.80;1.90;;;;;;;;;;5015267;28;20133;-66
2023/03/12 10:02:26;;;;;;;2.75;1.92;;;;;;;;;;4997981;28;20049;-65
2023/03/12 10:05:11;;;;;;;2.13;1.65;;;;;;;;;;5015361;28;20069;-65
2023/03/12 10:07:39;;;;;;;2.25;2.08;;;;;;;;;;5014457;28;20045;-65
2023/03/12 10:10:08;;;;;;;3.20;2.03;;;;;;;;;;4997520;28;20355;-65
2023/03/12 10:12:36;;;;;;;2.05;1.80;;;;;;;;;;4996879;28;20041;-65
2023/03/12 10:15:07;;;;;;;1.55;1.42;;;;;;;;;;4997535;28;20113;-65
2023/03/12 10:17:34;;;;;;;3.70;1.75;;;;;;;;;;5014806;28;20033;-65
2023/03/12 10:20:18;;;;;;;2.25;1.77;;;;;;;;;;5014901;28;20049;-65
2023/03/12 10:22:53;;;;;;;1.65;1.40;;;;;;;;;;5014555;28;20141;-64
2023/03/12 10:25:28;;;;;;;2.30;1.95;;;;;;;;;;5015069;28;20034;-64
2023/03/12 10:27:57;;;;;;;1.65;1.38;;;;;;;;;;5014273;28;20057;-64
2023/03/12 10:30:27;;;;;;;1.55;1.45;;;;;;;;;;4996996;28;20046;-65
2023/03/12 10:33:00;;;;;;;3.53;1.80;;;;;;;;;;5012909;28;20061;-64
2023/03/12 10:35:29;;;;;;;2.47;1.67;;;;;;;;;;4995833;28;20042;-64
2023/03/12 10:38:01;;;;;;;3.67;2.05;;;;;;;;;;4995131;28;20034;-64
2023/03/12 10:40:28;;;;;;;3.47;2.30;;;;;;;;;;4995277;28;20061;-64
2023/03/12 10:42:53;;;;;;;2.10;1.83;;;;;;;;;;5011808;28;20128;-64
2023/03/12 10:45:44;;;;;;;2.83;2.15;;;;;;;;;;5010970;28;20109;-64
2023/03/12 10:48:16;;;;;;;1.55;1.35;;;;;;;;;;4994982;28;20037;-64
2023/03/12 10:50:41;;;;;;;3.25;1.75;;;;;;;;;;4995359;28;20038;-64
2023/03/12 10:53:11;;;;;;;3.83;2.03;;;;;;;;;;5012360;28;20048;-64
2023/03/12 10:55:37;;;;;;;2.45;1.92;;;;;;;;;;5012344;28;20034;-64
2023/03/12 10:58:03;;;;;;;2.50;1.63;;;;;;;;;;4995522;28;20447;-64
2023/03/12 11:00:29;;;;;;;2.28;1.63;;;;;;;;;;5013998;28;20030;-64
2023/03/12 11:03:02;;;;;;;4.00;2.53;;;;;;;;;;5014080;28;20069;-64
2023/03/12 11:05:29;;;;;;;1.92;1.67;;;;;;;;;;5014240;28;20112;-64
2023/03/12 11:07:55;;;;;;;2.20;1.80;;;;;;;;;;4996521;28;20034;-63
2023/03/12 11:10:30;;;;;;;2.42;1.77;;;;;;;;;;5013905;28;20046;-63
2023/03/12 11:13:00;;;;;;;1.73;1.15;;;;;;;;;;5013972;28;20504;-63
2023/03/12 11:15:27;;;;;;;2.40;1.63;;;;;;;;;;5014162;28;20040;-63
2023/03/12 11:18:13;;;;;;;2.08;1.38;;;;;;;;;;5013900;28;20037;-63
2023/03/12 11:20:38;;;;;;;1.48;1.38;;;;;;;;;;5013748;28;20041;-63
2023/03/12 11:23:20;;;;;;;3.20;1.83;;;;;;;;;;5013648;28;20038;-63
2023/03/12 11:25:54;;;;;;;2.58;1.77;;;;;;;;;;5014045;28;20046;-63
2023/03/12 11:28:22;;;;;;;4.40;2.00;;;;;;;;;;5013756;28;20044;-63
2023/03/12 11:30:48;;;;;;;2.08;1.85;;;;;;;;;;4979882;28;20389;-63
2023/03/12 11:33:14;;;;;;;2.22;2.00;;;;;;;;;;5013682;28;20069;-63
2023/03/12 11:35:45;;;;;;;2.22;1.90;;;;;;;;;;5013585;28;20064;-63
2023/03/12 11:38:18;;;;;;;2.70;1.75;;;;;;;;;;5013701;28;20061;-63
2023/03/12 11:40:52;;;;;;;2.72;1.92;;;;;;;;;;5013910;28;20048;-63
2023/03/12 11:43:24;;;;;;;1.58;1.45;;;;;;;;;;5013861;28;20053;-63
2023/03/12 11:46:22;;;;;;;1.88;1.70;;;;;;;;;;5013542;28;20052;-63
2023/03/12 11:49:06;;;;;;;2.53;1.60;;;;;;;;;;4969546;28;20037;-63
2023/03/12 11:51:40;;;;;;;2.47;1.80;;;;;;;;;;5013831;28;20034;-63
2023/03/12 11:54:22;;;;;;;2.95;1.98;;;;;;;;;;4996155;28;20066;-63
2023/03/12 11:56:55;;;;;;;2.35;1.77;;;;;;;;;;5013945;28;20049;-63
2023/03/12 11:59:26;;;;;;;1.35;1.13;;;;;;;;;;5017532;28;20406;-63
2023/03/12 12:01:52;;;;;;;1.20;1.20;;;;;;;;;;5004770;23;20050;-59
2023/03/12 12:04:20;;;;;;;3.40;1.55;;;;;;;;;;5004100;23;20058;-62
2023/03/12 12:06:52;;;;;;;1.80;1.67;;;;;;;;;;5017800;28;20038;-63
2023/03/12 12:09:27;;;;;;;3.10;1.90;;;;;;;;;;5017196;28;20505;-63
2023/03/12 12:12:11;;;;;;;1.77;1.42;;;;;;;;;;5017336;28;20038;-63
2023/03/12 12:14:36;;;;;;;2.78;1.88;;;;;;;;;;5017725;28;20044;-63
2023/03/12 12:17:21;;;;;;;2.22;1.73;;;;;;;;;;5016888;28;20050;-63
2023/03/12 12:19:57;;;;;;;1.75;1.63;;;;;;;;;;5017388;28;20037;-63
2023/03/12 12:22:22;;;;;;;3.28;1.70;;;;;;;;;;5016858;28;20499;-63
2023/03/12 12:25:06;;;;;;;3.03;1.90;;;;;;;;;;5016958;28;20034;-63
2023/03/12 12:27:35;;;;;;;2.22;1.80;;;;;;;;;;4999119;28;20111;-63
2023/03/12 12:30:00;;;;;;;1.88;1.55;;;;;;;;;;5016892;28;20048;-63
2023/03/12 12:32:43;;;;;;;3.28;1.80;;;;;;;;;;5016931;28;20029;-63
2023/03/12 12:35:12;;;;;;;2.50;1.60;;;;;;;;;;4998988;28;20136;-63
2023/03/12 12:37:50;;;;;;;2.30;2.10;;;;;;;;;;5016796;28;20049;-63
2023/03/12 12:40:21;;;;;;;2.70;2.30;;;;;;;;;;5016514;28;20069;-63
2023/03/12 12:42:55;;;;;;;2.35;1.50;;;;;;;;;;5017029;28;20030;-63
2023/03/12 12:45:23;;;;;;;2.15;1.60;;;;;;;;;;4998842;28;20504;-63
2023/03/12 12:47:54;;;;;;;1.52;1.42;;;;;;;;;;4999498;28;20433;-63
2023/03/12 12:50:21;;;;;;;2.92;2.03;;;;;;;;;;5016393;28;20145;-63
2023/03/12 12:52:51;;;;;;;2.72;1.77;;;;;;;;;;5016585;28;20041;-63
2023/03/12 12:55:31;;;;;;;3.92;1.70;;;;;;;;;;5015106;28;20053;-63
2023/03/12 12:57:56;;;;;;;1.48;1.38;;;;;;;;;;4998769;28;20033;-63
2023/03/12 13:00:40;;;;;;;1.80;1.67;;;;;;;;;;4998548;28;20382;-63
2023/03/12 13:03:05;;;;;;;2.30;1.60;;;;;;;;;;5016772;28;20042;-63
2023/03/12 13:05:37;;;;;;;1.92;1.45;;;;;;;;;;5016029;28;20089;-63
2023/03/12 13:08:02;;;;;;;2.60;1.67;;;;;;;;;;5016414;28;20089;-63
2023/03/12 13:10:31;;;;;;;2.33;1.90;;;;;;;;;;5015978;28;20022;-63
2023/03/12 13:12:56;;;;;;;2.35;1.63;;;;;;;;;;5016205;28;20091;-63
2023/03/12 13:15:28;;;;;;;2.65;2.38;;;;;;;;;;5015874;28;20037;-63
2023/03/12 13:18:05;;;;;;;1.73;1.63;;;;;;;;;;5016024;28;20046;-63
2023/03/12 13:20:33;;;;;;;2.08;1.15;;;;;;;;;;4998231;28;20038;-63
2023/03/12 13:23:11;;;;;;;3.22;2.17;;;;;;;;;;4998612;28;20034;-63
2023/03/12 13:25:39;;;;;;;4.72;2.83;;;;;;;;;;5015980;28;20044;-63
2023/03/12 13:28:23;;;;;;;3.30;2.20;;;;;;;;;;5015832;28;20103;-63
2023/03/12 13:30:49;;;;;;;2.72;2.03;;;;;;;;;;5015894;28;20140;-63
2023/03/12 13:33:17;;;;;;;3.72;2.47;;;;;;;;;;5016070;28;20037;-63
2023/03/12 13:35:47;;;;;;;2.75;2.25;;;;;;;;;;5015391;28;20033;-63
2023/03/12 13:38:17;;;;;;;3.50;2.58;;;;;;;;;;5015750;28;20539;-63
2023/03/12 13:40:53;;;;;;;2.40;2.03;;;;;;;;;;5015415;28;20045;-63
2023/03/12 13:43:39;;;;;;;4.40;2.25;;;;;;;;;;5015882;28;20066;-63
2023/03/12 13:46:05;;;;;;;3.13;2.17;;;;;;;;;;5014780;28;20072;-63
2023/03/12 13:48:33;;;;;;;3.33;2.33;;;;;;;;;;5015647;28;20132;-63
2023/03/12 13:51:01;;;;;;;2.50;2.30;;;;;;;;;;5013156;28;20042;-59
2023/03/12 13:53:26;;;;;;;2.22;2.00;;;;;;;;;;5013891;28;20037;-59
2023/03/12 13:56:00;;;;;;;3.25;2.50;;;;;;;;;;4996458;28;20156;-59
2023/03/12 13:58:25;;;;;;;2.65;2.22;;;;;;;;;;5014265;28;20038;-59
2023/03/12 14:00:55;;;;;;;3.03;2.30;;;;;;;;;;5014673;28;20060;-59
2023/03/12 14:03:25;;;;;;;3.25;2.30;;;;;;;;;;5013054;28;20393;-59
2023/03/12 14:06:20;;;;;;;4.60;2.63;;;;;;;;;;5006625;28;20049;-59
2023/03/12 14:08:54;;;;;;;2.83;2.33;;;;;;;;;;4993495;28;20042;-59
2023/03/12 14:11:32;;;;;;;2.80;2.53;;;;;;;;;;5014663;28;20041;-59
2023/03/12 14:14:09;;;;;;;6.05;2.97;;;;;;;;;;5029079;28;20517;-59
2023/03/12 14:16:39;;;;;;;2.78;2.50;;;;;;;;;;5029787;28;20049;-59
2023/03/12 14:19:05;;;;;;;2.78;2.55;;;;;;;;;;5012531;28;20605;-59
2023/03/12 14:21:33;;;;;;;2.28;2.08;;;;;;;;;;5031257;28;20095;-59
2023/03/12 14:23:59;;;;;;;2.72;2.17;;;;;;;;;;5030017;28;20131;-59
2023/03/12 14:26:29;;;;;;;4.28;2.65;;;;;;;;;;5029978;28;20049;-59
2023/03/12 14:29:03;;;;;;;4.47;2.58;;;;;;;;;;5030874;28;20046;-59
2023/03/12 14:31:29;;;;;;;2.88;1.85;;;;;;;;;;5012908;28;20053;-59
2023/03/12 14:33:58;;;;;;;3.03;2.28;;;;;;;;;;5012190;28;20099;-59
2023/03/12 14:36:25;;;;;;;2.40;2.20;;;;;;;;;;5030818;28;20127;-59
2023/03/12 14:38:55;;;;;;;2.75;2.00;;;;;;;;;;5030514;28;20481;-59
2023/03/12 14:41:28;;;;;;;4.30;2.10;;;;;;;;;;5031005;28;20052;-59
2023/03/12 14:44:02;;;;;;;3.40;2.25;;;;;;;;;;5030760;28;20049;-59
2023/03/12 14:46:27;;;;;;;4.22;2.38;;;;;;;;;;5030777;28;20048;-59
2023/03/12 14:48:53;;;;;;;2.85;2.47;;;;;;;;;;5030785;28;20034;-59